createdAt,value
2023-05-19T00:00:12.331Z,2.20
2023-05-19T00:03:00.787Z,2.10
2023-05-19T00:05:31.233Z,2.10
2023-05-19T00:08:03.196Z,2.30
2023-05-19T00:10:33.287Z,2.30
2023-05-19T00:13:02.241Z,2.40
2023-05-19T00:15:31.368Z,2.40
2023-05-19T00:17:59.557Z,2.30
2023-05-19T00:20:27.668Z,2.20
2023-05-19T00:22:56.070Z,2.30
2023-05-19T00:25:24.533Z,2.30
2023-05-19T00:27:52.723Z,2.30
2023-05-19T00:30:23.051Z,2.40
2023-05-19T00:32:51.959Z,2.30
2023-05-19T00:35:20.780Z,2.10
2023-05-19T00:37:49.103Z,2.00
2023-05-19T00:40:17.720Z,2.00
2023-05-19T00:42:45.941Z,2.10
2023-05-19T00:45:14.116Z,2.10
2023-05-19T00:47:42.283Z,2.10
2023-05-19T00:50:11.137Z,2.10
2023-05-19T00:52:39.483Z,2.00
2023-05-19T00:55:09.895Z,2.00
2023-05-19T00:57:39.192Z,2.20
2023-05-19T01:00:08.811Z,1.90
2023-05-19T01:02:40.181Z,2.00
2023-05-19T01:05:10.564Z,2.10
2023-05-19T01:07:41.713Z,2.00
2023-05-19T01:10:11.171Z,2.10
2023-05-19T01:12:41.338Z,2.10
2023-05-19T01:15:10.994Z,2.00
2023-05-19T01:17:57.528Z,1.80
2023-05-19T01:20:46.516Z,1.80
2023-05-19T01:23:37.045Z,1.70
2023-05-19T01:26:46.862Z,1.80
2023-05-19T01:29:44.939Z,2.00
2023-05-19T01:32:19.697Z,1.90
2023-05-19T01:37:22.070Z,1.90
2023-05-19T01:39:51.408Z,2.30
2023-05-19T01:42:20.909Z,2.00
2023-05-19T01:44:49.566Z,1.80
2023-05-19T01:47:18.652Z,1.70
2023-05-19T01:49:46.661Z,2.00
2023-05-19T01:52:21.733Z,2.00
2023-05-19T01:54:54.845Z,1.50
2023-05-19T01:57:57.792Z,1.80
2023-05-19T02:00:43.856Z,1.70
2023-05-19T02:03:38.663Z,1.80
2023-05-19T02:06:24.207Z,1.80
2023-05-19T02:09:03.831Z,1.80
2023-05-19T02:11:38.217Z,1.80
2023-05-19T02:14:19.975Z,1.70
2023-05-19T02:16:49.520Z,1.50
2023-05-19T02:19:27.265Z,1.70
2023-05-19T02:21:56.986Z,1.50
2023-05-19T02:24:25.054Z,1.60
2023-05-19T02:26:54.522Z,1.70
2023-05-19T02:29:23.165Z,1.90
2023-05-19T02:31:51.799Z,1.80
2023-05-19T02:34:21.258Z,1.70
2023-05-19T02:36:52.376Z,1.70
2023-05-19T02:39:20.649Z,1.70
2023-05-19T02:41:48.715Z,1.70
2023-05-19T02:44:16.728Z,1.70
2023-05-19T02:46:44.892Z,1.80
2023-05-19T02:49:13.360Z,1.80
2023-05-19T02:51:41.783Z,1.50
2023-05-19T02:54:10.109Z,1.70
2023-05-19T02:56:38.587Z,1.50
2023-05-19T02:59:06.969Z,1.60
2023-05-19T03:01:38.010Z,1.80
2023-05-19T03:04:06.920Z,1.70
2023-05-19T03:06:35.172Z,1.60
2023-05-19T03:09:03.288Z,1.90
2023-05-19T03:11:31.530Z,1.80
2023-05-19T03:14:00.165Z,1.60
2023-05-19T03:16:28.377Z,1.70
2023-05-19T03:18:57.097Z,1.70
2023-05-19T03:21:25.444Z,1.50
2023-05-19T03:23:54.880Z,1.50
2023-05-19T03:26:23.449Z,1.90
2023-05-19T03:28:52.076Z,2.00
2023-05-19T03:31:20.400Z,1.80
2023-05-19T03:33:48.487Z,1.80
2023-05-19T03:36:17.620Z,1.60
2023-05-19T03:38:45.851Z,1.70
2023-05-19T03:41:14.249Z,1.60
2023-05-19T03:43:42.831Z,1.60
2023-05-19T03:46:11.209Z,1.70
2023-05-19T03:49:08.462Z,1.50
2023-05-19T03:51:56.162Z,1.80
2023-05-19T03:54:30.608Z,1.70
2023-05-19T03:56:58.979Z,1.70
2023-05-19T03:59:26.963Z,1.80
2023-05-19T04:01:55.564Z,1.70
2023-05-19T04:04:24.025Z,1.90
2023-05-19T04:06:52.421Z,1.80
2023-05-19T04:09:24.054Z,1.60
2023-05-19T04:11:52.223Z,1.80
2023-05-19T04:14:20.720Z,1.60
2023-05-19T04:16:49.235Z,1.60
2023-05-19T04:19:18.087Z,1.60
2023-05-19T04:21:46.256Z,1.60
2023-05-19T04:24:14.433Z,1.80
2023-05-19T04:26:46.251Z,1.60
2023-05-19T04:29:18.469Z,1.60
2023-05-19T04:31:47.254Z,1.50
2023-05-19T04:34:15.896Z,1.90
2023-05-19T04:36:44.524Z,1.50
2023-05-19T04:39:12.935Z,1.60
2023-05-19T04:41:44.917Z,1.50
2023-05-19T04:44:13.950Z,1.70
2023-05-19T04:46:42.938Z,1.50
2023-05-19T04:49:14.691Z,1.50
2023-05-19T04:51:43.000Z,1.40
2023-05-19T04:54:11.282Z,1.20
2023-05-19T04:56:39.566Z,1.40
2023-05-19T04:59:07.638Z,1.40
2023-05-19T05:01:40.476Z,1.20
2023-05-19T05:04:08.755Z,1.40
2023-05-19T05:06:38.639Z,1.50
2023-05-19T05:09:07.168Z,1.40
2023-05-19T05:11:36.647Z,1.40
2023-05-19T05:14:05.309Z,1.60
2023-05-19T05:16:35.307Z,1.70
2023-05-19T05:19:04.238Z,1.90
2023-05-19T05:21:33.177Z,1.90
2023-05-19T05:24:02.289Z,2.30
2023-05-19T05:26:35.592Z,2.20
2023-05-19T05:29:04.741Z,2.50
2023-05-19T05:31:33.224Z,3.40
2023-05-19T05:34:01.621Z,3.20
2023-05-19T05:36:32.263Z,3.40
2023-05-19T05:39:02.637Z,3.00
2023-05-19T05:41:35.524Z,3.50
2023-05-19T05:44:09.145Z,2.90
2023-05-19T05:46:37.991Z,3.30
2023-05-19T05:49:06.722Z,3.30
2023-05-19T05:51:36.781Z,3.20
2023-05-19T05:54:08.048Z,2.90
2023-05-19T05:56:41.264Z,2.90
2023-05-19T05:59:09.701Z,3.30
2023-05-19T06:01:38.465Z,3.50
2023-05-19T06:04:08.686Z,3.30
2023-05-19T06:06:38.182Z,3.10
2023-05-19T06:09:07.492Z,2.80
2023-05-19T06:11:35.990Z,2.80
2023-05-19T06:14:05.003Z,3.00
2023-05-19T06:16:48.255Z,3.20
2023-05-19T06:19:18.522Z,2.60
2023-05-19T06:21:46.692Z,3.00
2023-05-19T06:24:14.985Z,3.20
2023-05-19T06:26:43.379Z,2.70
2023-05-19T06:29:11.726Z,2.50
2023-05-19T06:31:39.932Z,2.80
2023-05-19T06:34:12.650Z,2.40
2023-05-19T06:36:41.682Z,2.40
2023-05-19T06:39:10.263Z,2.50
2023-05-19T06:41:38.465Z,2.60
2023-05-19T06:44:11.111Z,2.40
2023-05-19T06:46:39.890Z,2.00
2023-05-19T06:49:08.078Z,2.70
2023-05-19T06:51:39.159Z,2.30
2023-05-19T06:54:07.494Z,2.40
2023-05-19T06:56:36.850Z,2.70
2023-05-19T06:59:05.039Z,2.40
2023-05-19T07:01:36.428Z,2.00
2023-05-19T07:04:05.996Z,2.50
2023-05-19T07:06:34.202Z,2.60
2023-05-19T07:09:05.650Z,2.30
2023-05-19T07:11:35.263Z,2.30
2023-05-19T07:14:03.949Z,2.20
2023-05-19T07:16:33.189Z,2.70
2023-05-19T07:19:01.576Z,2.00
2023-05-19T07:21:29.938Z,2.50
2023-05-19T07:23:58.383Z,2.00
2023-05-19T07:26:29.944Z,2.20
2023-05-19T07:28:58.554Z,2.20
2023-05-19T07:31:26.869Z,2.00
2023-05-19T07:33:55.283Z,2.10
2023-05-19T07:36:25.273Z,2.20
2023-05-19T07:38:53.680Z,1.80
2023-05-19T07:41:23.203Z,1.90
2023-05-19T07:43:51.294Z,2.00
2023-05-19T07:46:22.203Z,2.10
2023-05-19T07:48:50.392Z,1.80
2023-05-19T07:51:19.981Z,1.80
2023-05-19T07:53:48.350Z,2.00
2023-05-19T07:56:16.751Z,1.70
2023-05-19T07:58:45.149Z,1.90
2023-05-19T08:01:13.626Z,2.10
2023-05-19T08:03:44.967Z,1.90
2023-05-19T08:06:14.652Z,1.80
2023-05-19T08:08:43.052Z,2.00
2023-05-19T08:11:12.126Z,1.90
2023-05-19T08:13:40.524Z,1.90
2023-05-19T08:16:09.578Z,1.70
2023-05-19T08:18:37.723Z,1.60
2023-05-19T08:21:06.698Z,1.80
2023-05-19T08:23:37.389Z,1.80
2023-05-19T08:26:06.256Z,1.80
2023-05-19T08:28:34.467Z,1.60
2023-05-19T08:31:02.539Z,2.00
2023-05-19T08:33:31.025Z,1.60
2023-05-19T08:35:59.305Z,1.80
2023-05-19T08:38:27.784Z,1.80
2023-05-19T08:40:58.220Z,1.60
2023-05-19T08:43:26.746Z,1.80
2023-05-19T08:45:55.797Z,1.80
2023-05-19T08:48:24.575Z,1.80
2023-05-19T08:51:23.904Z,1.50
2023-05-19T08:54:00.761Z,1.80
2023-05-19T08:56:29.956Z,1.70
2023-05-19T08:59:00.547Z,1.60
2023-05-19T09:01:30.733Z,1.80
2023-05-19T09:03:59.725Z,1.60
2023-05-19T09:06:32.652Z,1.60
2023-05-19T09:09:00.893Z,1.60
2023-05-19T09:11:29.403Z,1.60
2023-05-19T09:13:57.550Z,1.40
2023-05-19T09:16:27.874Z,1.70
2023-05-19T09:18:58.865Z,1.80
2023-05-19T09:21:31.603Z,1.60
2023-05-19T09:24:06.572Z,1.70
2023-05-19T09:26:43.158Z,1.50
2023-05-19T09:29:17.294Z,1.50
2023-05-19T09:31:54.808Z,1.60
2023-05-19T09:34:25.201Z,1.70
2023-05-19T09:36:54.494Z,1.60
2023-05-19T09:39:25.351Z,1.50
2023-05-19T09:41:55.272Z,1.70
2023-05-19T09:44:29.997Z,1.70
2023-05-19T09:49:30.446Z,1.50
2023-05-19T09:52:03.537Z,1.40
2023-05-19T09:54:34.364Z,1.60
2023-05-19T09:57:07.718Z,1.50
2023-05-19T09:59:39.247Z,1.50
2023-05-19T10:02:18.900Z,1.50
2023-05-19T10:04:48.803Z,1.60
2023-05-19T10:07:19.701Z,1.40
2023-05-19T10:09:50.666Z,1.60
2023-05-19T10:12:19.347Z,1.60
2023-05-19T10:14:49.735Z,1.50
2023-05-19T10:17:18.299Z,1.30
2023-05-19T10:19:50.835Z,1.50
2023-05-19T10:22:19.088Z,1.40
2023-05-19T10:24:47.263Z,1.40
2023-05-19T10:27:17.119Z,1.50
2023-05-19T10:29:51.215Z,1.50
2023-05-19T10:32:29.928Z,1.50
2023-05-19T10:35:13.053Z,1.50
2023-05-19T10:38:16.037Z,1.60
2023-05-19T10:40:57.512Z,1.50
2023-05-19T10:43:56.608Z,1.70
2023-05-19T10:46:28.852Z,1.50
2023-05-19T10:48:57.292Z,1.80
2023-05-19T10:51:32.618Z,1.50
2023-05-19T10:54:11.466Z,1.50
2023-05-19T10:56:46.037Z,1.60
2023-05-19T10:59:37.913Z,1.20
2023-05-19T11:02:08.990Z,1.30
2023-05-19T11:04:50.971Z,1.90
2023-05-19T11:07:22.581Z,1.90
2023-05-19T11:09:53.168Z,1.80
2023-05-19T11:12:24.795Z,1.70
2023-05-19T11:14:54.918Z,1.70
2023-05-19T11:17:26.084Z,1.70
2023-05-19T11:19:57.136Z,1.80
2023-05-19T11:22:27.949Z,1.80
2023-05-19T11:24:56.608Z,1.70
2023-05-19T11:27:28.479Z,1.90
2023-05-19T11:30:09.045Z,2.10
2023-05-19T11:32:39.594Z,1.80
2023-05-19T11:35:10.276Z,2.00
2023-05-19T11:37:40.846Z,1.80
2023-05-19T11:40:11.160Z,1.50
2023-05-19T11:42:39.517Z,1.90
2023-05-19T11:45:10.965Z,1.80
2023-05-19T11:47:56.441Z,1.90
2023-05-19T11:50:28.012Z,1.70
2023-05-19T11:52:58.648Z,2.00
2023-05-19T11:55:27.264Z,1.80
2023-05-19T11:58:03.943Z,2.00
2023-05-19T12:00:41.142Z,1.60
2023-05-19T12:03:10.661Z,1.90
2023-05-19T12:05:46.893Z,2.00
2023-05-19T12:08:18.873Z,1.80
2023-05-19T12:10:51.076Z,1.80
2023-05-19T12:13:21.119Z,1.70
2023-05-19T12:15:54.298Z,1.80
2023-05-19T12:18:42.354Z,1.60
2023-05-19T12:21:23.252Z,1.70
2023-05-19T12:23:54.373Z,2.00
2023-05-19T12:26:23.042Z,2.10
2023-05-19T12:28:53.077Z,1.80
2023-05-19T12:31:25.576Z,1.80
2023-05-19T12:33:56.514Z,1.90
2023-05-19T12:36:25.668Z,2.40
2023-05-19T12:38:55.551Z,2.30
2023-05-19T12:41:27.877Z,2.20
2023-05-19T12:43:56.747Z,2.30
2023-05-19T12:46:26.719Z,2.40
2023-05-19T12:49:01.588Z,2.60
2023-05-19T12:51:30.378Z,2.80
2023-05-19T12:53:58.873Z,2.50
2023-05-19T12:56:27.547Z,2.50
2023-05-19T12:58:56.030Z,2.80
2023-05-19T13:01:25.195Z,2.80
2023-05-19T13:03:54.650Z,2.90
2023-05-19T13:06:23.233Z,2.50
2023-05-19T13:08:51.526Z,2.90
2023-05-19T13:11:19.809Z,2.80
2023-05-19T13:13:48.350Z,2.80
2023-05-19T13:16:16.868Z,2.70
2023-05-19T13:18:45.845Z,2.60
2023-05-19T13:21:15.333Z,2.70
2023-05-19T13:23:43.604Z,2.50
2023-05-19T13:26:13.828Z,2.50
2023-05-19T13:28:46.328Z,2.50
2023-05-19T13:31:14.868Z,2.90
2023-05-19T13:33:43.102Z,3.40
2023-05-19T13:36:11.445Z,3.60
2023-05-19T13:38:41.977Z,3.30
2023-05-19T13:41:10.897Z,3.30
2023-05-19T13:43:39.244Z,3.00
2023-05-19T13:46:07.483Z,3.00
2023-05-19T13:48:36.312Z,3.00
2023-05-19T13:51:04.860Z,2.70
2023-05-19T13:53:34.669Z,3.00
2023-05-19T13:56:02.887Z,2.60
2023-05-19T13:58:31.059Z,2.90
2023-05-19T14:01:00.381Z,2.60
2023-05-19T14:03:28.605Z,2.80
2023-05-19T14:05:59.129Z,2.90
2023-05-19T14:08:28.982Z,2.40
2023-05-19T14:10:57.232Z,2.40
2023-05-19T14:13:33.461Z,2.80
2023-05-19T14:16:04.305Z,2.60
2023-05-19T14:18:32.838Z,3.00
2023-05-19T14:21:01.020Z,2.70
2023-05-19T14:23:30.506Z,2.80
2023-05-19T14:25:58.733Z,2.70
2023-05-19T14:28:27.168Z,2.90
2023-05-19T14:30:55.548Z,2.80
2023-05-19T14:33:23.620Z,2.90
2023-05-19T14:35:52.798Z,2.80
2023-05-19T14:38:21.159Z,2.80
2023-05-19T14:40:49.573Z,2.90
2023-05-19T14:43:17.879Z,2.70
2023-05-19T14:45:46.160Z,2.50
2023-05-19T14:48:14.495Z,2.50
2023-05-19T14:50:42.796Z,2.40
2023-05-19T14:53:11.261Z,2.70
2023-05-19T14:55:39.344Z,2.40
2023-05-19T14:58:15.807Z,2.70
2023-05-19T15:00:48.554Z,2.60
2023-05-19T15:03:16.767Z,2.80
2023-05-19T15:05:45.614Z,2.60
2023-05-19T15:08:13.830Z,2.70
2023-05-19T15:10:42.005Z,2.70
2023-05-19T15:13:10.607Z,2.40
2023-05-19T15:15:39.439Z,2.70
2023-05-19T15:18:07.941Z,2.90
2023-05-19T15:20:36.739Z,2.60
2023-05-19T15:23:05.253Z,2.70
2023-05-19T15:25:33.512Z,2.70
2023-05-19T15:28:01.997Z,2.80
2023-05-19T15:30:31.001Z,2.70
2023-05-19T15:32:59.846Z,2.90
2023-05-19T15:35:28.055Z,2.60
2023-05-19T15:37:56.371Z,2.60
2023-05-19T15:40:24.810Z,2.50
2023-05-19T15:42:52.907Z,2.40
2023-05-19T15:45:21.588Z,2.60
2023-05-19T15:47:49.869Z,2.30
2023-05-19T15:50:18.524Z,2.90
2023-05-19T15:52:47.256Z,3.00
2023-05-19T15:55:15.396Z,2.70
2023-05-19T15:57:43.545Z,2.90
2023-05-19T16:00:12.948Z,2.90
2023-05-19T16:02:41.126Z,2.80
2023-05-19T16:05:09.939Z,2.90
2023-05-19T16:07:38.131Z,2.80
2023-05-19T16:10:07.254Z,2.50
2023-05-19T16:12:36.753Z,2.90
2023-05-19T16:15:06.024Z,2.80
2023-05-19T16:17:35.077Z,2.70
2023-05-19T16:20:04.216Z,2.60
2023-05-19T16:22:32.592Z,2.90
2023-05-19T16:25:00.908Z,2.70
2023-05-19T16:27:28.935Z,2.70
2023-05-19T16:29:57.203Z,3.10
2023-05-19T16:32:25.736Z,3.00
2023-05-19T16:34:53.966Z,3.10
2023-05-19T16:37:22.285Z,2.60
2023-05-19T16:39:50.416Z,2.70
2023-05-19T16:42:18.481Z,2.70
2023-05-19T16:44:46.870Z,3.30
2023-05-19T16:47:14.796Z,2.80
2023-05-19T16:49:44.084Z,2.70
2023-05-19T16:52:12.531Z,2.90
2023-05-19T16:54:40.741Z,2.90
2023-05-19T16:57:10.022Z,3.10
2023-05-19T16:59:38.304Z,2.80
2023-05-19T17:02:08.463Z,3.30
2023-05-19T17:04:36.550Z,3.00
2023-05-19T17:07:06.981Z,3.10
2023-05-19T17:09:36.336Z,3.40
2023-05-19T17:12:05.392Z,3.60
2023-05-19T17:14:33.480Z,2.70
2023-05-19T17:17:01.830Z,3.40
2023-05-19T17:19:30.388Z,3.10
2023-05-19T17:21:58.471Z,3.30
2023-05-19T17:24:28.870Z,3.30
2023-05-19T17:26:56.941Z,3.10
2023-05-19T17:29:27.125Z,3.10
2023-05-19T17:31:55.853Z,3.10
2023-05-19T17:34:24.098Z,3.20
2023-05-19T17:36:52.486Z,3.20
2023-05-19T17:39:20.885Z,3.60
2023-05-19T17:41:49.747Z,3.40
2023-05-19T17:44:18.678Z,3.00
2023-05-19T17:46:46.740Z,3.30
2023-05-19T17:49:15.583Z,3.50
2023-05-19T17:51:44.722Z,3.20
2023-05-19T17:54:13.689Z,3.40
2023-05-19T17:56:44.350Z,3.50
2023-05-19T17:59:12.885Z,3.10
2023-05-19T18:01:41.830Z,3.10
2023-05-19T18:04:12.133Z,3.30
2023-05-19T18:06:46.323Z,3.30
2023-05-19T18:09:19.084Z,3.50
2023-05-19T18:11:47.082Z,3.50
2023-05-19T18:14:15.149Z,3.80
2023-05-19T18:16:43.287Z,3.30
2023-05-19T18:19:11.725Z,3.50
2023-05-19T18:21:39.871Z,3.80
2023-05-19T18:24:08.527Z,3.50
2023-05-19T18:26:42.070Z,3.60
2023-05-19T18:29:11.965Z,3.30
2023-05-19T18:31:41.449Z,3.30
2023-05-19T18:34:09.794Z,3.70
2023-05-19T18:36:37.855Z,3.50
2023-05-19T18:39:06.101Z,3.70
2023-05-19T18:41:34.166Z,3.30
2023-05-19T18:44:02.281Z,3.40
2023-05-19T18:46:30.671Z,3.50
2023-05-19T18:48:59.105Z,3.60
2023-05-19T18:51:27.291Z,3.80
2023-05-19T18:53:55.657Z,3.50
2023-05-19T18:56:28.270Z,3.10
2023-05-19T18:58:57.146Z,3.60
2023-05-19T19:01:25.640Z,4.10
2023-05-19T19:03:53.833Z,3.70
2023-05-19T19:06:23.338Z,3.70
2023-05-19T19:08:51.567Z,3.70
2023-05-19T19:11:20.088Z,3.80
2023-05-19T19:13:51.519Z,3.80
2023-05-19T19:16:19.936Z,3.90
2023-05-19T19:18:48.221Z,3.90
2023-05-19T19:21:19.344Z,4.90
2023-05-19T19:23:47.308Z,6.00
2023-05-19T19:26:15.565Z,7.00
2023-05-19T19:28:43.735Z,8.40
2023-05-19T19:31:12.544Z,7.70
2023-05-19T19:33:43.408Z,8.50
2023-05-19T19:36:11.975Z,9.70
2023-05-19T19:38:40.511Z,9.70
2023-05-19T19:41:09.210Z,9.30
2023-05-19T19:43:37.471Z,9.90
2023-05-19T19:46:07.201Z,10.00
2023-05-19T19:48:35.923Z,9.20
2023-05-19T19:51:03.998Z,8.30
2023-05-19T19:53:31.976Z,8.30
2023-05-19T19:56:01.826Z,8.60
2023-05-19T19:58:30.887Z,8.00
2023-05-19T20:01:02.277Z,8.10
2023-05-19T20:03:31.824Z,7.80
2023-05-19T20:06:00.516Z,7.30
2023-05-19T20:08:28.779Z,7.60
2023-05-19T20:10:56.982Z,7.30
2023-05-19T20:13:25.469Z,6.50
2023-05-19T20:15:53.606Z,6.80
2023-05-19T20:18:21.840Z,6.80
2023-05-19T20:20:49.808Z,6.60
2023-05-19T20:23:18.043Z,6.20
2023-05-19T20:25:58.956Z,6.00
2023-05-19T20:28:30.983Z,6.30
2023-05-19T20:30:59.139Z,5.70
2023-05-19T20:33:27.283Z,5.50
2023-05-19T20:35:55.477Z,4.90
2023-05-19T20:38:23.582Z,4.40
2023-05-19T20:40:51.903Z,4.30
2023-05-19T20:43:19.969Z,3.70
2023-05-19T20:45:48.269Z,3.70
2023-05-19T20:48:16.471Z,3.10
2023-05-19T20:50:44.605Z,3.20
2023-05-19T20:53:12.883Z,3.20
2023-05-19T20:55:41.559Z,3.30
2023-05-19T20:58:09.840Z,3.20
2023-05-19T21:00:38.012Z,3.50
2023-05-19T21:03:06.765Z,3.30
2023-05-19T21:05:36.481Z,3.10
2023-05-19T21:08:05.285Z,3.20
2023-05-19T21:10:33.554Z,3.40
2023-05-19T21:13:01.868Z,3.30
2023-05-19T21:15:29.927Z,3.30
2023-05-19T21:17:57.854Z,3.40
2023-05-19T21:20:27.538Z,3.00
2023-05-19T21:22:56.815Z,3.30
2023-05-19T21:25:24.989Z,3.10
2023-05-19T21:27:53.160Z,3.20
2023-05-19T21:30:23.632Z,3.00
2023-05-19T21:32:51.900Z,3.30
2023-05-19T21:35:19.872Z,2.80
2023-05-19T21:37:48.207Z,3.10
2023-05-19T21:40:16.267Z,2.80
2023-05-19T21:42:44.350Z,2.70
2023-05-19T21:45:12.398Z,2.80
2023-05-19T21:47:40.625Z,2.60
2023-05-19T21:50:11.093Z,2.50
2023-05-19T21:52:39.097Z,2.70
2023-05-19T21:55:08.849Z,2.80
2023-05-19T21:57:36.882Z,2.50
2023-05-19T22:00:06.776Z,2.90
2023-05-19T22:02:41.050Z,2.60
2023-05-19T22:05:10.139Z,2.70
2023-05-19T22:07:38.483Z,2.70
2023-05-19T22:10:07.292Z,2.70
2023-05-19T22:12:35.458Z,2.60
2023-05-19T22:15:06.810Z,2.40
2023-05-19T22:17:34.838Z,2.70
2023-05-19T22:20:02.966Z,2.60
2023-05-19T22:22:31.321Z,2.50
2023-05-19T22:24:59.238Z,2.80
2023-05-19T22:27:27.470Z,2.90
2023-05-19T22:29:55.713Z,2.60
2023-05-19T22:32:23.839Z,2.60
2023-05-19T22:34:52.071Z,2.40
2023-05-19T22:37:23.593Z,2.90
2023-05-19T22:39:51.720Z,2.70
2023-05-19T22:42:19.841Z,2.60
2023-05-19T22:44:47.754Z,2.40
2023-05-19T22:47:16.485Z,2.70
2023-05-19T22:49:44.722Z,2.50
2023-05-19T22:52:13.274Z,2.60
2023-05-19T22:54:41.329Z,2.70
2023-05-19T22:57:10.680Z,2.60
2023-05-19T22:59:38.852Z,2.60
2023-05-19T23:02:07.889Z,2.50
2023-05-19T23:04:36.462Z,2.60
2023-05-19T23:07:05.217Z,2.40
2023-05-19T23:09:33.981Z,2.60
2023-05-19T23:12:02.504Z,2.40
2023-05-19T23:14:31.695Z,2.50
2023-05-19T23:16:59.951Z,2.50
2023-05-19T23:19:29.322Z,2.80
2023-05-19T23:21:57.953Z,2.40
2023-05-19T23:24:26.039Z,2.30
2023-05-19T23:26:55.116Z,2.80
2023-05-19T23:29:23.194Z,2.50
2023-05-19T23:31:51.631Z,2.50
2023-05-19T23:34:20.435Z,2.40
2023-05-19T23:36:48.665Z,2.70
2023-05-19T23:39:16.654Z,2.50
2023-05-19T23:41:44.820Z,2.50
2023-05-19T23:44:12.868Z,2.70
2023-05-19T23:46:41.443Z,2.50
2023-05-19T23:49:09.711Z,2.40
2023-05-19T23:51:37.778Z,2.60
2023-05-19T23:54:05.756Z,2.50
2023-05-19T23:56:33.746Z,2.80
2023-05-19T23:59:02.051Z,2.40
